createdAt,value
2023-02-05T00:03:43.146Z,0.6
2023-02-05T00:08:58.584Z,0.6
2023-02-05T00:14:15.377Z,0.6
2023-02-05T00:19:31.858Z,0.6
2023-02-05T00:24:43.319Z,0.4
2023-02-05T00:29:57.623Z,0.4
2023-02-05T00:35:14.390Z,0.4
2023-02-05T00:40:32.447Z,0.4
2023-02-05T00:45:44.949Z,0.6
2023-02-05T00:51:03.224Z,0.6
2023-02-05T00:56:15.305Z,0.8
2023-02-05T01:01:31.076Z,0.8
2023-02-05T01:06:46.719Z,0.8
2023-02-05T01:12:03.584Z,0.8
2023-02-05T01:17:13.806Z,0.7
2023-02-05T01:22:29.691Z,0.7
2023-02-05T01:38:23.219Z,0.1
2023-02-05T01:43:38.263Z,0.1
2023-02-05T01:48:50.076Z,0.4
2023-02-05T01:54:06.426Z,0.4
2023-02-05T01:59:17.716Z,0.1
2023-02-05T02:04:32.600Z,0.1
2023-02-05T02:09:50.326Z,0.1
2023-02-05T02:15:03.981Z,0.1
2023-02-05T02:20:15.903Z,0.1
2023-02-05T02:25:32.737Z,-0.2
2023-02-05T02:30:46.606Z,-0.2
2023-02-05T02:36:04.762Z,-0.2
2023-02-05T02:41:14.811Z,-0.3
2023-02-05T02:46:25.877Z,-0.4
2023-02-05T02:51:41.810Z,-0.4
2023-02-05T02:56:56.336Z,-0.4
2023-02-05T03:02:11.884Z,-0.4
2023-02-05T03:07:22.624Z,-0.3
2023-02-05T03:12:38.941Z,-0.3
2023-02-05T03:17:53.075Z,-0.3
2023-02-05T03:23:04.947Z,-0.3
2023-02-05T03:28:21.087Z,-0.3
2023-02-05T03:33:30.172Z,-0.3
2023-02-05T03:38:41.414Z,-0.4
2023-02-05T03:49:22.386Z,-0.4
2023-02-05T03:54:37.352Z,-0.4
2023-02-05T03:59:49.373Z,-0.6
2023-02-05T04:05:04.886Z,-0.6
2023-02-05T04:15:36.714Z,-0.6
2023-02-05T04:20:49.950Z,-0.6
2023-02-05T04:26:02.306Z,-0.6
2023-02-05T04:36:38.388Z,-0.6
2023-02-05T04:41:50.239Z,-0.8
2023-02-05T04:47:04.612Z,-0.8
2023-02-05T04:52:18.688Z,-0.8
2023-02-05T04:57:35.078Z,-0.8
2023-02-05T05:02:49.087Z,-0.9
2023-02-05T05:08:04.968Z,-0.9
2023-02-05T05:13:20.481Z,-0.9
2023-02-05T05:18:36.212Z,-0.9
2023-02-05T05:23:46.538Z,-1.4
2023-02-05T05:29:01.267Z,-1.4
2023-02-05T05:39:36.727Z,-1.4
2023-02-05T05:44:53.024Z,-1.4
2023-02-05T05:50:06.858Z,-1.4
2023-02-05T05:55:20.443Z,-1.4
2023-02-05T06:00:33.665Z,-1.6
2023-02-05T06:11:11.002Z,-1.6
2023-02-05T06:16:25.569Z,-1.6
2023-02-05T06:21:37.473Z,-1.5
2023-02-05T06:32:10.808Z,-1.3
2023-02-05T06:42:57.189Z,-1.3
2023-02-05T06:53:26.692Z,-1.4
2023-02-05T07:09:20.677Z,-0.8
2023-02-05T07:14:33.685Z,-0.9
2023-02-05T07:19:45.849Z,-0.9
2023-02-05T07:30:18.612Z,-1
2023-02-05T07:35:35.560Z,-1
2023-02-05T07:40:46.075Z,-1
2023-02-05T07:45:57.202Z,-1
2023-02-05T07:56:32.796Z,-1
2023-02-05T08:01:44.577Z,-0.7
2023-02-05T08:06:58.717Z,-0.7
2023-02-05T08:12:09.020Z,-0.6
2023-02-05T08:22:49.372Z,-0.6
2023-02-05T08:28:01.180Z,-0.1
2023-02-05T08:33:13.081Z,0.2
2023-02-05T08:38:25.488Z,0.3
2023-02-05T08:43:40.918Z,0.3
2023-02-05T08:48:55.005Z,0.3
2023-02-05T08:54:07.022Z,0.7
2023-02-05T08:59:19.368Z,0.8
2023-02-05T09:09:51.746Z,0.6
2023-02-05T09:15:02.088Z,0.7
2023-02-05T09:20:17.668Z,0.8
2023-02-05T09:25:29.897Z,0.8
2023-02-05T09:30:38.686Z,0.8
2023-02-05T09:35:50.416Z,0.8
2023-02-05T09:41:02.252Z,0.9
2023-02-05T09:46:14.142Z,1
2023-02-05T09:56:47.546Z,1.3
2023-02-05T10:02:06.208Z,1.3
2023-02-05T10:07:16.515Z,1.3
2023-02-05T10:12:26.329Z,1.5
2023-02-05T10:17:42.715Z,1.5
2023-02-05T10:28:15.698Z,1.5
2023-02-05T10:33:27.195Z,1.6
2023-02-05T10:54:43.158Z,1.8
2023-02-05T10:59:52.162Z,1.8
2023-02-05T11:05:05.685Z,1.8
2023-02-05T11:10:19.624Z,1.8
2023-02-05T11:15:26.872Z,1.8
2023-02-05T11:20:43.380Z,1.8
2023-02-05T11:26:03.459Z,1.8
2023-02-05T11:36:34.622Z,1.7
2023-02-05T11:47:07.848Z,1.8
2023-02-05T11:52:19.591Z,1.8
2023-02-05T11:57:31.242Z,1.9
2023-02-05T12:08:09.484Z,1.9
2023-02-05T12:29:31.955Z,2.1
2023-02-05T12:34:43.005Z,2.1
2023-02-05T12:39:55.695Z,2.1
2023-02-05T12:45:06.884Z,2.2
2023-02-05T12:50:24.164Z,2.1
2023-02-05T12:55:28.062Z,2
2023-02-05T13:00:40.577Z,2.1
2023-02-05T13:05:51.158Z,2.1
2023-02-05T13:11:02.984Z,2.1
2023-02-05T13:16:14.207Z,2.1
2023-02-05T13:26:47.784Z,2.1
2023-02-05T13:53:25.099Z,2
2023-02-05T13:58:35.626Z,1.9
2023-02-05T14:03:46.376Z,1.9
2023-02-05T14:08:56.284Z,1.7
2023-02-05T14:14:08.150Z,1.6
2023-02-05T14:19:18.342Z,1.5
2023-02-05T14:24:29.755Z,1.4
2023-02-05T14:29:41.975Z,1.2
2023-02-05T14:34:53.386Z,1.2
2023-02-05T14:40:04.927Z,1.2
2023-02-05T14:45:23.690Z,1.2
2023-02-05T14:50:35.132Z,1.2
2023-02-05T14:55:51.188Z,1.2
2023-02-05T15:01:04.128Z,1.2
2023-02-05T15:06:17.818Z,1.2
2023-02-05T15:11:34.075Z,1.2
2023-02-05T15:16:47.727Z,1.2
2023-02-05T15:22:03.743Z,1.2
2023-02-05T15:27:16.166Z,1.1
2023-02-05T15:32:31.242Z,1.1
2023-02-05T15:37:46.969Z,1.1
2023-02-05T15:43:06.553Z,1.1
2023-02-05T15:48:17.744Z,1
2023-02-05T15:53:34.238Z,1
2023-02-05T16:04:10.024Z,1
2023-02-05T16:09:21.933Z,0.8
2023-02-05T16:14:35.725Z,0.8
2023-02-05T16:19:49.600Z,0.8
2023-02-05T16:25:06.425Z,0.8
2023-02-05T16:30:15.510Z,0.8
2023-02-05T16:35:32.472Z,0.8
2023-02-05T16:40:46.415Z,0.8
2023-02-05T16:45:58.877Z,0.8
2023-02-05T16:51:14.010Z,0.8
2023-02-05T16:56:28.220Z,0.8
2023-02-05T17:01:46.171Z,0.8
2023-02-05T17:07:02.211Z,0.8
2023-02-05T17:12:13.294Z,0.8
2023-02-05T17:17:29.402Z,0.8
2023-02-05T17:22:45.669Z,0.8
2023-02-05T17:27:58.384Z,0.8
2023-02-05T17:33:10.085Z,0.9
2023-02-05T17:38:25.692Z,0.9
2023-02-05T17:43:41.055Z,0.9
2023-02-05T17:48:56.427Z,0.9
2023-02-05T17:54:14.148Z,0.9
2023-02-05T17:59:30.850Z,0.8
2023-02-05T18:04:51.985Z,0.8
2023-02-05T18:10:08.563Z,0.8
2023-02-05T18:15:27.003Z,0.8
2023-02-05T18:31:24.362Z,0.8
2023-02-05T18:36:34.456Z,0.8
2023-02-05T18:42:01.048Z,0.8
2023-02-05T18:47:16.753Z,0.9
2023-02-05T18:52:31.795Z,0.9
2023-02-05T18:57:45.775Z,0.9
2023-02-05T19:02:59.599Z,0.8
2023-02-05T19:08:14.118Z,0.8
2023-02-05T19:13:29.132Z,0.8
2023-02-05T19:18:46.735Z,0.8
2023-02-05T19:24:01.087Z,0.8
2023-02-05T19:29:22.780Z,0.8
2023-02-05T19:34:37.054Z,0.8
2023-02-05T19:45:09.696Z,0.8
2023-02-05T19:50:25.686Z,0.8
2023-02-05T19:55:38.313Z,0.8
2023-02-05T20:00:53.118Z,0.8
2023-02-05T20:06:08.036Z,0.8
2023-02-05T20:11:25.130Z,0.8
2023-02-05T20:16:41.938Z,0.8
2023-02-05T20:21:53.572Z,0.8
2023-02-05T20:27:03.991Z,0.8
2023-02-05T20:32:21.396Z,0.8
2023-02-05T20:37:41.177Z,0.8
2023-02-05T20:42:52.738Z,0.8
2023-02-05T20:48:05.386Z,1
2023-02-05T20:53:17.416Z,1
2023-02-05T21:03:58.412Z,1
2023-02-05T21:09:11.920Z,1.1
2023-02-05T21:14:22.612Z,1.1
2023-02-05T21:19:35.214Z,1.2
2023-02-05T21:35:33.550Z,1.2
2023-02-05T21:40:49.213Z,1.1
2023-02-05T21:51:18.377Z,1.1
2023-02-05T22:02:01.188Z,1.1
2023-02-05T22:12:33.484Z,1.2
2023-02-05T22:23:18.719Z,1.2
2023-02-05T22:28:30.721Z,1.1
2023-02-05T22:39:06.858Z,1.1
2023-02-05T22:44:21.320Z,1.1
2023-02-05T23:05:38.201Z,1.2
2023-02-05T23:26:54.573Z,1.2
2023-02-05T23:42:49.657Z,1.2
2023-02-05T23:53:27.078Z,1.2
